Time,TemperatureF,DewpointF,PressureIn,WindDirection,WindDirectionDegrees,WindSpeedMPH,WindSpeedGustMPH,Humidity,HourlyPrecipIn,Conditions,Clouds,dailyrainin,SoftwareType,DateUTC
2013-02-27 00:14:00,158.0,99.9,29.46,NNW,337,4.2,-999.0,99,-99.99,,,0.00,Acu-Link.com,2013-02-27 06:14:00,
2013-02-27 00:29:00,158.0,99.9,29.46,NE,45,4.2,-999.0,99,-99.99,,,0.00,Acu-Link.com,2013-02-27 06:29:00,
2013-02-27 00:44:00,158.0,99.9,29.46,ENE,67,4.7,-999.0,99,-99.99,,,0.00,Acu-Link.com,2013-02-27 06:44:00,
2013-02-27 00:59:00,32.5,32.3,29.46,North,0,3.2,-999.0,99,-99.99,,,0.00,Acu-Link.com,2013-02-27 06:59:00,
2013-02-27 01:14:00,32.4,32.2,29.47,NE,45,3.2,-999.0,99,-99.99,,,0.00,Acu-Link.com,2013-02-27 07:14:00,
2013-02-27 01:29:00,32.4,32.2,29.46,NE,45,2.2,-999.0,99,-99.99,,,0.00,Acu-Link.com,2013-02-27 07:29:00,
2013-02-27 01:45:00,32.4,32.2,29.45,NNE,22,2.2,-999.0,99,-99.99,,,0.00,Acu-Link.com,2013-02-27 07:45:00,
2013-02-27 02:00:00,32.4,32.2,29.45,West,270,2.2,-999.0,99,-99.99,,,0.00,Acu-Link.com,2013-02-27 08:00:00,
2013-02-27 02:15:00,32.4,32.2,29.45,NNW,337,1.7,-999.0,99,-99.99,,,0.00,Acu-Link.com,2013-02-27 08:15:00,
2013-02-27 02:30:00,32.4,32.2,29.45,NE,45,2.2,-999.0,99,-99.99,,,0.00,Acu-Link.com,2013-02-27 08:30:00,
2013-02-27 02:45:00,32.4,32.2,29.45,NE,45,3.7,-999.0,99,-99.99,,,0.00,Acu-Link.com,2013-02-27 08:45:00,
2013-02-27 03:00:00,32.4,32.2,29.44,NNE,22,2.7,-999.0,99,-99.99,,,0.00,Acu-Link.com,2013-02-27 09:00:00,
2013-02-27 03:17:00,32.4,32.2,29.43,NNE,22,2.2,-999.0,99,-99.99,,,0.00,Acu-Link.com,2013-02-27 09:17:00,
2013-02-27 03:33:00,32.4,32.2,29.43,NW,315,1.7,-999.0,99,-99.99,,,0.00,Acu-Link.com,2013-02-27 09:33:00,
2013-02-27 03:48:00,32.4,32.2,29.43,NNE,22,3.2,-999.0,99,-99.99,,,0.00,Acu-Link.com,2013-02-27 09:48:00,
2013-02-27 04:03:00,32.4,32.2,29.43,NNE,22,4.7,-999.0,99,-99.99,,,0.00,Acu-Link.com,2013-02-27 10:03:00,
2013-02-27 04:18:00,32.4,32.2,29.44,SSE,157,2.2,-999.0,99,-99.99,,,0.00,Acu-Link.com,2013-02-27 10:18:00,
2013-02-27 04:33:00,32.4,32.2,29.44,NNE,22,3.7,-999.0,99,-99.99,,,0.00,Acu-Link.com,2013-02-27 10:33:00,
2013-02-27 04:48:00,32.4,32.2,29.43,NNE,22,3.7,-999.0,99,-99.99,,,0.00,Acu-Link.com,2013-02-27 10:48:00,
2013-02-27 05:03:00,32.5,32.3,29.43,NW,315,2.7,-999.0,99,-99.99,,,0.00,Acu-Link.com,2013-02-27 11:03:00,
2013-02-27 05:19:00,32.5,32.3,29.43,North,0,2.7,-999.0,99,-99.99,,,0.00,Acu-Link.com,2013-02-27 11:19:00,
2013-02-27 05:34:00,32.5,32.3,29.44,ENE,67,2.7,-999.0,99,-99.99,,,0.00,Acu-Link.com,2013-02-27 11:34:00,
2013-02-27 05:49:00,32.5,32.3,29.45,ESE,112,4.2,-999.0,99,-99.99,,,0.00,Acu-Link.com,2013-02-27 11:49:00,
2013-02-27 06:04:00,32.7,32.5,29.45,NNE,22,3.2,-999.0,99,-99.99,,,0.00,Acu-Link.com,2013-02-27 12:04:00,
2013-02-27 06:19:00,32.7,32.5,29.45,NNE,22,2.2,-999.0,99,-99.99,,,0.00,Acu-Link.com,2013-02-27 12:19:00,
2013-02-27 06:34:00,32.7,32.5,29.44,West,270,3.2,-999.0,99,-99.99,,,0.00,Acu-Link.com,2013-02-27 12:34:00,
2013-02-27 06:49:00,32.7,32.5,29.45,NW,315,2.2,-999.0,99,-99.99,,,0.00,Acu-Link.com,2013-02-27 12:49:00,
2013-02-27 07:04:00,32.7,32.5,29.45,NNW,337,2.2,-999.0,99,-99.99,,,0.00,Acu-Link.com,2013-02-27 13:04:00,
2013-02-27 07:19:00,32.7,32.5,29.46,NNE,22,2.2,-999.0,99,-99.99,,,0.00,Acu-Link.com,2013-02-27 13:19:00,
2013-02-27 07:35:00,32.9,32.7,29.46,NE,45,2.7,-999.0,99,-99.99,,,0.00,Acu-Link.com,2013-02-27 13:35:00,
2013-02-27 07:50:00,32.9,32.7,29.47,NE,45,0.0,-999.0,99,-99.99,,,0.00,Acu-Link.com,2013-02-27 13:50:00,
2013-02-27 08:05:00,32.9,32.7,29.46,East,90,0.0,-999.0,99,-99.99,,,0.00,Acu-Link.com,2013-02-27 14:05:00,
2013-02-27 08:20:00,32.9,32.7,29.47,North,0,0.0,-999.0,99,-99.99,,,0.00,Acu-Link.com,2013-02-27 14:20:00,
2013-02-27 08:35:00,33.3,33.0,29.47,NNW,337,0.0,-999.0,99,-99.99,,,0.00,Acu-Link.com,2013-02-27 14:35:00,
2013-02-27 08:50:00,32.7,32.5,29.47,West,270,0.0,-999.0,99,-99.99,,,0.00,Acu-Link.com,2013-02-27 14:50:00,
2013-02-27 09:06:00,32.7,32.5,29.47,NE,45,0.0,-999.0,99,-99.99,,,0.00,Acu-Link.com,2013-02-27 15:06:00,
2013-02-27 09:21:00,33.1,32.6,29.48,North,0,0.0,-999.0,98,-99.99,,,0.00,Acu-Link.com,2013-02-27 15:21:00,
2013-02-27 09:36:00,33.1,32.6,29.48,SW,225,0.0,-999.0,98,-99.99,,,0.00,Acu-Link.com,2013-02-27 15:36:00,
2013-02-27 09:51:00,33.3,32.8,29.47,NE,45,0.0,-999.0,98,-99.99,,,0.00,Acu-Link.com,2013-02-27 15:51:00,
2013-02-27 10:06:00,34.0,33.2,29.48,NW,315,0.0,-999.0,97,-99.99,,,0.00,Acu-Link.com,2013-02-27 16:06:00,
2013-02-27 10:21:00,33.8,33.0,29.47,NNW,337,0.0,-999.0,97,-99.99,,,0.00,Acu-Link.com,2013-02-27 16:21:00,
2013-02-27 10:36:00,34.3,33.3,29.48,North,0,0.0,-999.0,96,-99.99,,,0.00,Acu-Link.com,2013-02-27 16:36:00,
2013-02-27 10:51:00,35.4,33.8,29.47,SSE,157,0.0,-999.0,94,-99.99,,,0.00,Acu-Link.com,2013-02-27 16:51:00,
2013-02-27 11:06:00,34.7,33.7,29.48,ENE,67,1.7,-999.0,96,-99.99,,,0.00,Acu-Link.com,2013-02-27 17:06:00,
2013-02-27 11:21:00,34.3,33.5,29.48,SW,225,1.7,-999.0,97,-99.99,,,0.00,Acu-Link.com,2013-02-27 17:21:00,
2013-02-27 11:37:00,34.5,33.5,29.47,NNE,22,2.7,-999.0,96,-99.99,,,0.00,Acu-Link.com,2013-02-27 17:37:00,
2013-02-27 11:52:00,35.1,34.1,29.48,North,0,4.7,-999.0,96,-99.99,,,0.00,Acu-Link.com,2013-02-27 17:52:00,
2013-02-27 12:07:00,35.8,34.0,29.47,NNE,22,3.2,-999.0,93,-99.99,,,0.00,Acu-Link.com,2013-02-27 18:07:00,
2013-02-27 12:22:00,35.6,34.0,29.48,NE,45,3.7,-999.0,94,-99.99,,,0.00,Acu-Link.com,2013-02-27 18:22:00,
2013-02-27 12:37:00,36.5,34.7,29.47,ESE,112,2.2,-999.0,93,-99.99,,,0.00,Acu-Link.com,2013-02-27 18:37:00,
2013-02-27 12:52:00,35.8,34.0,29.47,WNW,292,1.7,-999.0,93,-99.99,,,0.00,Acu-Link.com,2013-02-27 18:52:00,
2013-02-27 13:07:00,36.0,34.4,29.47,NNW,337,0.0,-999.0,94,-99.99,,,0.00,Acu-Link.com,2013-02-27 19:07:00,
2013-02-27 13:22:00,36.9,35.1,29.47,ENE,67,1.7,-999.0,93,-99.99,,,0.00,Acu-Link.com,2013-02-27 19:22:00,
2013-02-27 13:37:00,36.7,34.9,29.48,ENE,67,2.7,-999.0,93,-99.99,,,0.00,Acu-Link.com,2013-02-27 19:37:00,
2013-02-27 13:53:00,36.0,34.2,29.48,NNW,337,1.7,-999.0,93,-99.99,,,0.01,Acu-Link.com,2013-02-27 19:53:00,
2013-02-27 14:08:00,35.8,34.2,29.48,NE,45,3.7,-999.0,94,-99.99,,,0.02,Acu-Link.com,2013-02-27 20:08:00,
2013-02-27 14:23:00,36.3,34.7,29.49,NW,315,1.7,-999.0,94,-99.99,,,0.06,Acu-Link.com,2013-02-27 20:23:00,
2013-02-27 14:38:00,35.6,34.3,29.49,West,270,2.7,-999.0,95,-99.99,,,0.11,Acu-Link.com,2013-02-27 20:38:00,
2013-02-27 14:53:00,35.2,34.2,29.50,NNW,337,2.2,-999.0,96,-99.99,,,0.14,Acu-Link.com,2013-02-27 20:53:00,
2013-02-27 15:08:00,35.6,34.6,29.49,West,270,2.7,-999.0,96,-99.99,,,0.16,Acu-Link.com,2013-02-27 21:08:00,
2013-02-27 15:24:00,35.1,34.1,29.51,NW,315,2.7,-999.0,96,-99.99,,,0.18,Acu-Link.com,2013-02-27 21:24:00,
2013-02-27 15:39:00,34.7,33.7,29.50,NNW,337,1.1,-999.0,96,-99.99,,,0.22,Acu-Link.com,2013-02-27 21:39:00,
2013-02-27 15:54:00,34.7,33.9,29.51,North,0,3.7,-999.0,97,-99.99,,,0.24,Acu-Link.com,2013-02-27 21:54:00,
2013-02-27 16:09:00,34.3,33.5,29.52,NW,315,2.2,-999.0,97,-99.99,,,0.26,Acu-Link.com,2013-02-27 22:09:00,
2013-02-27 16:24:00,33.8,33.3,29.51,ENE,67,2.2,-999.0,98,-99.99,,,0.27,Acu-Link.com,2013-02-27 22:24:00,
2013-02-27 16:40:00,33.4,33.1,29.52,NNE,22,4.7,-999.0,99,-99.99,,,0.28,Acu-Link.com,2013-02-27 22:40:00,
2013-02-27 16:55:00,33.4,33.1,29.53,West,270,6.3,-999.0,99,-99.99,,,0.30,Acu-Link.com,2013-02-27 22:55:00,
2013-02-27 17:10:00,33.1,32.8,29.53,ENE,67,2.7,-999.0,99,-99.99,,,0.32,Acu-Link.com,2013-02-27 23:10:00,
2013-02-27 17:25:00,33.1,32.8,29.54,NW,315,3.7,-999.0,99,-99.99,,,0.32,Acu-Link.com,2013-02-27 23:25:00,
2013-02-27 17:40:00,33.1,32.8,29.54,NE,45,4.2,-999.0,99,-99.99,,,0.33,Acu-Link.com,2013-02-27 23:40:00,
2013-02-27 17:56:00,33.1,32.8,29.57,ENE,67,7.8,-999.0,99,-99.99,,,0.35,Acu-Link.com,2013-02-27 23:56:00,
2013-02-27 18:11:00,33.1,32.8,29.57,NE,45,3.2,-999.0,99,-99.99,,,0.36,Acu-Link.com,2013-02-28 00:11:00,
2013-02-27 18:26:00,33.1,32.8,29.57,NNW,337,2.7,-999.0,99,-99.99,,,0.36,Acu-Link.com,2013-02-28 00:26:00,
2013-02-27 18:41:00,33.1,32.8,29.58,NNE,22,3.2,-999.0,99,-99.99,,,0.37,Acu-Link.com,2013-02-28 00:41:00,
2013-02-27 18:56:00,33.1,32.8,29.59,NNE,22,4.2,-999.0,99,-99.99,,,0.38,Acu-Link.com,2013-02-28 00:56:00,
2013-02-27 19:11:00,33.1,32.8,29.59,NE,45,3.2,-999.0,99,-99.99,,,0.40,Acu-Link.com,2013-02-28 01:11:00,
2013-02-27 19:26:00,33.1,32.8,29.59,NE,45,4.2,-999.0,99,-99.99,,,0.40,Acu-Link.com,2013-02-28 01:26:00,
2013-02-27 19:41:00,33.1,32.8,29.59,ENE,67,5.3,-999.0,99,-99.99,,,0.41,Acu-Link.com,2013-02-28 01:41:00,
2013-02-27 19:56:00,32.9,32.7,29.59,NNW,337,3.2,-999.0,99,-99.99,,,0.41,Acu-Link.com,2013-02-28 01:56:00,
2013-02-27 20:12:00,32.7,32.5,29.59,NNW,337,4.2,-999.0,99,-99.99,,,0.42,Acu-Link.com,2013-02-28 02:12:00,
2013-02-27 20:27:00,32.7,32.5,29.60,NNW,337,2.7,-999.0,99,-99.99,,,0.42,Acu-Link.com,2013-02-28 02:27:00,
2013-02-27 20:42:00,32.5,32.3,29.59,North,0,5.3,-999.0,99,-99.99,,,0.42,Acu-Link.com,2013-02-28 02:42:00,
2013-02-27 20:57:00,32.5,32.3,29.60,NW,315,2.7,-999.0,99,-99.99,,,0.42,Acu-Link.com,2013-02-28 02:57:00,
2013-02-27 21:12:00,32.5,32.3,29.60,North,0,1.1,-999.0,99,-99.99,,,0.43,Acu-Link.com,2013-02-28 03:12:00,
2013-02-27 21:27:00,32.5,32.3,29.61,NNW,337,4.2,-999.0,99,-99.99,,,0.43,Acu-Link.com,2013-02-28 03:27:00,
2013-02-27 21:42:00,32.5,32.3,29.60,West,270,4.7,-999.0,99,-99.99,,,0.43,Acu-Link.com,2013-02-28 03:42:00,
2013-02-27 21:57:00,32.4,32.2,29.61,WNW,292,4.7,-999.0,99,-99.99,,,0.44,Acu-Link.com,2013-02-28 03:57:00,
2013-02-27 22:12:00,32.4,32.2,29.61,North,0,2.7,-999.0,99,-99.99,,,0.44,Acu-Link.com,2013-02-28 04:12:00,
2013-02-27 22:28:00,32.4,32.2,29.62,NNE,22,3.2,-999.0,99,-99.99,,,0.44,Acu-Link.com,2013-02-28 04:28:00,
2013-02-27 22:43:00,32.4,32.2,29.61,North,0,4.7,-999.0,99,-99.99,,,0.44,Acu-Link.com,2013-02-28 04:43:00,
2013-02-27 22:58:00,32.4,32.2,29.62,NE,45,3.7,-999.0,99,-99.99,,,0.44,Acu-Link.com,2013-02-28 04:58:00,
2013-02-27 23:13:00,32.4,32.2,29.62,North,0,3.2,-999.0,99,-99.99,,,0.44,Acu-Link.com,2013-02-28 05:13:00,
2013-02-27 23:28:00,32.4,32.2,29.62,ESE,112,3.2,-999.0,99,-99.99,,,0.44,Acu-Link.com,2013-02-28 05:28:00,
2013-02-27 23:43:00,32.4,32.2,29.61,North,0,2.2,-999.0,99,-99.99,,,0.44,Acu-Link.com,2013-02-28 05:43:00,
2013-02-27 23:59:00,32.4,32.2,29.61,West,270,3.2,-999.0,99,-99.99,,,0.44,Acu-Link.com,2013-02-28 05:59:00,